Strona główna
METAR-TAF:

METAR-TAF

Lotnisko :

Port lotniczy Lugano

Lugano, Szwajcaria

Szerokość geograficzna: 46-00N, Długość geograficzna: 008-58E, wysokość: 273 m

Aktualna obserwacja pogody

Raport powstał 41 minut temu, godzina 10:20 UTC
Wiatr 2 kt z kierunków zmiennych
Temperatura 26°C
Wilgotność 51%
Ciśnienie 1013 hPa
Widzialność 10 km lub więcej
Mało chmury na wysokości 6000 ft

METAR: LSZA 181020Z VRB02KT 9999 FEW060 26/15 Q1013 NOSIG

czas: 13:01 (11:01 UTC)

Prognoza

Raport powstał 2 godziny i 36 minut temu, godzina 08:25 UTC
Prognoza ważna od 18 godzina 09 UTC do 18 godzina 18 UTC
Wiatr 3 kt z kierunków zmiennych
Widzialność 10 km lub więcej
Mało chmury na wysokości 12000 ft
Przejściowo
od 18 godzina 11 UTC do 18 godzina 15 UTC
Wiatr 10 kt od południe
Prawdopodobieństwo 30% :
Przejściowo
od 18 godzina 14 UTC do 18 godzina 17 UTC
Mało chmury na wysokości 7000 ft, Cumulonimbus.
burza, deszcz

TAF: LSZA 180825Z 1809/1818 VRB03KT 9999 FEW120 TEMPO 1811/1815 19010KT PROB30 TEMPO 1814/1817 TSRA FEW070CB

Obserwacja i prognoza pogody dla ponad 4000 lotnisk (raport METAR i TAF).

Dostępne stacje oznaczono żółtymi i czerwonymi punktami na mapie.

Najedź kursorem aby zobaczyć nazwę stacji.

Kliknij aby zobaczyć obserwacje i prognozy pogody.

Aby zmienić mapę: kliknij na zielony przycisk z czarnym krzyżykiem, aby powiększyć; na zielony przycisk z myślnikiem, aby pomniejszyć; na zielone strzałki, aby przejść do map sąsiednich.


METAR-TAF: